Strathkinness, United Kingdom
Current Conditions -  °F | °C
As of 12:50 PM on Friday 24 Oct 2014 (Local Time) from EGQL Reporting Station
Scattered Clouds Scattered Clouds  
Wind Chill: 54°   Ceiling: Unl
Heat Index: 54°   Visibility: 6mi
Dew Point: 43°   Wind: 18mph
Humidity: 67%   Direction: 240°WSW
Pressure: 29.71"   Gusts: NA
Location:  56.33°N, 2.87°W
Report Text: EGQL 241150Z AUTO 24016KT 9999 FEW025/// SCT045/// 12/06 Q1006
Loading
Personal Weather Stations






























Interactive Weather Map
Tropical Storm Tracking
New forecast layout! Learn more

10-Day Weather Forecast

Advertisements
Track Severe Weather on mobile